PWSweather.com
Personal Weather Stations
Station Observations
BLACKWELL
Blackwell, AlfretonGB DE55

BlackwellAlfretonGB DE55

Lat: 53.12076, Lon: -1.354978

Elevation: 410

Station Type: Vantage Pro

High Low Average
Temperature 59.7°F15.4°C 51.1°F10.6°C 56.5°F13.6°C
Dew Point 55.8°F13.2°C 46.4°F8.0°C 52.4°F11.3°C
Winds 3.0 mph 4.8 kmh Calm Calm 1.0 mph SW1.6 kmh SW
Wind Gusts 10.0 mph16.1 kmh 2.0 mph3.2 kmh 5.0 mph8.0 kmh
Humidity 95% 78% 86%
Pressure 29.84 in1010.5 mb 29.61 in1002.7 mb -
Precipitation 0.09 in2.3 mm - -
Hour Temp Dew Point Humidity Winds Wind Gusts Pressure Precip Precip Rate Daily Precip Total
12:48 AM 55.9°F13.3°C 52.5°F11.4°C 88% 1.0 mph SW1.6 kmh SW 4.0 mph6.4 kmh 29.77 in1008.1 mb 0.00 in0.0 mm 0.00 in0.0 mm 0.00 in0.0 mm
01:48 AM 56.7°F13.7°C 53.2°F11.8°C 88% Calm Calm 3.0 mph4.8 kmh 29.75 in1007.5 mb 0.00 in0.0 mm 0.00 in0.0 mm 0.00 in0.0 mm
02:48 AM 57.6°F14.2°C 54.5°F12.5°C 90% Calm Calm 2.0 mph3.2 kmh 29.73 in1006.8 mb 0.00 in0.0 mm 0.00 in0.0 mm 0.00 in0.0 mm
03:48 AM 57.9°F14.4°C 54.9°F12.7°C 89% Calm Calm 6.0 mph9.7 kmh 29.71 in1006.1 mb 0.00 in0.0 mm 0.00 in0.0 mm 0.00 in0.0 mm
04:48 AM 58.5°F14.7°C 54.0°F12.2°C 85% 2.0 mph SW3.2 kmh SW 8.0 mph12.9 kmh 29.70 in1005.8 mb 0.01 in0.3 mm 0.00 in0.0 mm 0.01 in0.3 mm
05:48 AM 58.3°F14.6°C 53.4°F11.9°C 84% 3.0 mph SW4.8 kmh SW 7.0 mph11.3 kmh 29.69 in1005.4 mb 0.00 in0.0 mm 0.00 in0.0 mm 0.01 in0.3 mm
06:48 AM 57.7°F14.3°C 52.9°F11.6°C 84% 1.0 mph WSW1.6 kmh WSW 5.0 mph8.0 kmh 29.69 in1005.4 mb 0.00 in0.0 mm 0.00 in0.0 mm 0.01 in0.3 mm
07:48 AM 57.4°F14.1°C 52.5°F11.4°C 84% 1.0 mph SW1.6 kmh SW 5.0 mph8.0 kmh 29.69 in1005.4 mb 0.00 in0.0 mm 0.00 in0.0 mm 0.01 in0.3 mm
08:48 AM 58.1°F14.5°C 52.9°F11.6°C 83% 1.0 mph WSW1.6 kmh WSW 7.0 mph11.3 kmh 29.69 in1005.4 mb 0.00 in0.0 mm 0.00 in0.0 mm 0.01 in0.3 mm
09:48 AM 58.5°F14.7°C 52.9°F11.6°C 82% 1.0 mph WSW1.6 kmh WSW 4.0 mph6.4 kmh 29.69 in1005.4 mb 0.00 in0.0 mm 0.00 in0.0 mm 0.01 in0.3 mm
10:48 AM 59.7°F15.4°C 52.9°F11.6°C 78% 1.0 mph WSW1.6 kmh WSW 6.0 mph9.7 kmh 29.67 in1004.7 mb 0.00 in0.0 mm 0.00 in0.0 mm 0.01 in0.3 mm
11:48 AM 59.7°F15.4°C 52.9°F11.6°C 78% 1.0 mph SW1.6 kmh SW 7.0 mph11.3 kmh 29.65 in1004.1 mb 0.00 in0.0 mm 0.00 in0.0 mm 0.01 in0.3 mm
12:48 PM 59.4°F15.2°C 53.1°F11.7°C 80% 1.0 mph SW1.6 kmh SW 9.0 mph14.5 kmh 29.63 in1003.4 mb 0.00 in0.0 mm 0.00 in0.0 mm 0.01 in0.3 mm
01:48 PM 58.5°F14.7°C 54.0°F12.2°C 85% 1.0 mph SW1.6 kmh SW 10.0 mph16.1 kmh 29.61 in1002.7 mb 0.00 in0.0 mm 0.00 in0.0 mm 0.01 in0.3 mm
02:48 PM 57.2°F14.0°C 55.2°F12.9°C 93% 1.0 mph SW1.6 kmh SW 6.0 mph9.7 kmh 29.62 in1003.0 mb 0.02 in0.5 mm 0.00 in0.0 mm 0.02 in0.5 mm
03:48 PM 57.0°F13.9°C 55.8°F13.2°C 95% 1.0 mph SW1.6 kmh SW 6.0 mph9.7 kmh 29.61 in1002.7 mb 0.03 in0.8 mm 0.00 in0.0 mm 0.06 in1.5 mm
04:48 PM 56.8°F13.8°C 55.4°F13.0°C 95% 1.0 mph SW1.6 kmh SW 7.0 mph11.3 kmh 29.61 in1002.7 mb 0.03 in0.8 mm 0.00 in0.0 mm 0.09 in2.3 mm
05:48 PM 56.1°F13.4°C 54.1°F12.3°C 93% 1.0 mph SW1.6 kmh SW 4.0 mph6.4 kmh 29.63 in1003.4 mb 0.01 in0.3 mm 0.00 in0.0 mm 0.09 in2.3 mm
06:48 PM 55.0°F12.8°C 52.0°F11.1°C 89% 1.0 mph SSW1.6 kmh SSW 5.0 mph8.0 kmh 29.68 in1005.1 mb 0.00 in0.0 mm 0.00 in0.0 mm 0.09 in2.3 mm
07:48 PM 53.4°F11.9°C 48.9°F9.4°C 85% Calm Calm 3.0 mph4.8 kmh 29.72 in1006.4 mb 0.00 in0.0 mm 0.00 in0.0 mm 0.09 in2.3 mm
08:48 PM 52.2°F11.2°C 48.7°F9.3°C 88% Calm Calm 3.0 mph4.8 kmh 29.76 in1007.8 mb 0.00 in0.0 mm 0.00 in0.0 mm 0.09 in2.3 mm
09:48 PM 51.8°F11.0°C 47.1°F8.4°C 84% Calm Calm 2.0 mph3.2 kmh 29.79 in1008.8 mb 0.00 in0.0 mm 0.00 in0.0 mm 0.09 in2.3 mm
10:48 PM 51.6°F10.9°C 47.3°F8.5°C 85% Calm Calm 4.0 mph6.4 kmh 29.81 in1009.5 mb 0.00 in0.0 mm 0.00 in0.0 mm 0.09 in2.3 mm
11:48 PM 51.1°F10.6°C 46.4°F8.0°C 84% Calm Calm 3.0 mph4.8 kmh 29.84 in1010.5 mb 0.00 in0.0 mm 0.00 in0.0 mm 0.04 in1.0 mm